sensor_id;sensor_type;location;lat;lon;timestamp;P1;durP1;ratioP1;P2;durP2;ratioP2
4831;SDS011;2430;51.322;7.864;2023-10-19T00:00:13;6.53;;;5.53;;
4831;SDS011;2430;51.322;7.864;2023-10-19T00:02:50;5.93;;;4.97;;
4831;SDS011;2430;51.322;7.864;2023-10-19T00:05:19;7.20;;;5.43;;
4831;SDS011;2430;51.322;7.864;2023-10-19T00:07:46;6.90;;;5.13;;
4831;SDS011;2430;51.322;7.864;2023-10-19T00:10:11;6.40;;;4.80;;
4831;SDS011;2430;51.322;7.864;2023-10-19T00:12:40;5.70;;;4.83;;
4831;SDS011;2430;51.322;7.864;2023-10-19T00:15:07;4.80;;;4.30;;
4831;SDS011;2430;51.322;7.864;2023-10-19T00:17:35;4.47;;;4.03;;
4831;SDS011;2430;51.322;7.864;2023-10-19T00:20:05;6.40;;;4.47;;
4831;SDS011;2430;51.322;7.864;2023-10-19T00:22:53;5.00;;;4.30;;
4831;SDS011;2430;51.322;7.864;2023-10-19T00:25:20;6.93;;;4.40;;
4831;SDS011;2430;51.322;7.864;2023-10-19T00:27:48;4.67;;;4.27;;
4831;SDS011;2430;51.322;7.864;2023-10-19T00:30:14;5.33;;;4.57;;
4831;SDS011;2430;51.322;7.864;2023-10-19T00:32:46;5.80;;;4.70;;
4831;SDS011;2430;51.322;7.864;2023-10-19T00:35:13;4.67;;;4.17;;
4831;SDS011;2430;51.322;7.864;2023-10-19T00:37:52;4.07;;;3.70;;
4831;SDS011;2430;51.322;7.864;2023-10-19T00:40:21;5.97;;;4.70;;
4831;SDS011;2430;51.322;7.864;2023-10-19T00:43:02;4.90;;;3.90;;
4831;SDS011;2430;51.322;7.864;2023-10-19T00:45:31;6.10;;;4.17;;
4831;SDS011;2430;51.322;7.864;2023-10-19T00:48:05;4.70;;;3.77;;
4831;SDS011;2430;51.322;7.864;2023-10-19T00:50:34;4.93;;;3.67;;
4831;SDS011;2430;51.322;7.864;2023-10-19T00:53:02;4.27;;;3.70;;
4831;SDS011;2430;51.322;7.864;2023-10-19T00:55:32;4.80;;;4.03;;
4831;SDS011;2430;51.322;7.864;2023-10-19T00:57:58;7.30;;;3.67;;
4831;SDS011;2430;51.322;7.864;2023-10-19T01:00:31;5.23;;;4.50;;
4831;SDS011;2430;51.322;7.864;2023-10-19T01:02:59;5.07;;;4.57;;
4831;SDS011;2430;51.322;7.864;2023-10-19T01:05:29;5.83;;;4.07;;
4831;SDS011;2430;51.322;7.864;2023-10-19T01:08:02;6.10;;;4.10;;
4831;SDS011;2430;51.322;7.864;2023-10-19T01:10:38;4.90;;;4.13;;
4831;SDS011;2430;51.322;7.864;2023-10-19T01:13:05;4.83;;;4.30;;
4831;SDS011;2430;51.322;7.864;2023-10-19T01:15:31;4.40;;;4.00;;
4831;SDS011;2430;51.322;7.864;2023-10-19T01:18:02;4.77;;;4.30;;
4831;SDS011;2430;51.322;7.864;2023-10-19T01:20:30;5.17;;;4.40;;
4831;SDS011;2430;51.322;7.864;2023-10-19T01:23:14;6.50;;;4.87;;
4831;SDS011;2430;51.322;7.864;2023-10-19T01:25:49;6.50;;;4.80;;
4831;SDS011;2430;51.322;7.864;2023-10-19T01:28:25;4.80;;;4.23;;
4831;SDS011;2430;51.322;7.864;2023-10-19T01:31:03;5.83;;;4.20;;
4831;SDS011;2430;51.322;7.864;2023-10-19T01:33:33;8.97;;;4.90;;
4831;SDS011;2430;51.322;7.864;2023-10-19T01:36:00;5.87;;;4.77;;
4831;SDS011;2430;51.322;7.864;2023-10-19T01:38:41;6.20;;;4.90;;
4831;SDS011;2430;51.322;7.864;2023-10-19T01:41:06;6.63;;;4.60;;
4831;SDS011;2430;51.322;7.864;2023-10-19T01:43:38;5.53;;;5.00;;
4831;SDS011;2430;51.322;7.864;2023-10-19T01:46:05;7.90;;;5.30;;
4831;SDS011;2430;51.322;7.864;2023-10-19T01:48:36;8.50;;;5.13;;
4831;SDS011;2430;51.322;7.864;2023-10-19T01:51:03;6.50;;;5.40;;
4831;SDS011;2430;51.322;7.864;2023-10-19T01:53:30;6.57;;;5.43;;
4831;SDS011;2430;51.322;7.864;2023-10-19T01:55:56;5.37;;;4.83;;
4831;SDS011;2430;51.322;7.864;2023-10-19T01:58:24;9.30;;;5.80;;
4831;SDS011;2430;51.322;7.864;2023-10-19T02:00:50;6.87;;;5.50;;
4831;SDS011;2430;51.322;7.864;2023-10-19T02:03:19;6.23;;;5.50;;
4831;SDS011;2430;51.322;7.864;2023-10-19T02:05:46;7.73;;;6.53;;
4831;SDS011;2430;51.322;7.864;2023-10-19T02:08:14;7.53;;;5.90;;
4831;SDS011;2430;51.322;7.864;2023-10-19T02:10:45;13.83;;;7.00;;
4831;SDS011;2430;51.322;7.864;2023-10-19T02:13:13;10.27;;;6.03;;
4831;SDS011;2430;51.322;7.864;2023-10-19T02:15:41;8.07;;;5.27;;
4831;SDS011;2430;51.322;7.864;2023-10-19T02:18:07;6.63;;;5.80;;
4831;SDS011;2430;51.322;7.864;2023-10-19T02:20:34;7.23;;;6.07;;
4831;SDS011;2430;51.322;7.864;2023-10-19T02:22:59;8.13;;;6.63;;
4831;SDS011;2430;51.322;7.864;2023-10-19T02:25:28;8.37;;;6.37;;
4831;SDS011;2430;51.322;7.864;2023-10-19T02:27:55;6.30;;;5.70;;
4831;SDS011;2430;51.322;7.864;2023-10-19T02:30:23;12.37;;;6.97;;
4831;SDS011;2430;51.322;7.864;2023-10-19T02:32:50;9.30;;;6.90;;
4831;SDS011;2430;51.322;7.864;2023-10-19T02:35:15;7.40;;;6.70;;
4831;SDS011;2430;51.322;7.864;2023-10-19T02:37:43;10.70;;;7.20;;
4831;SDS011;2430;51.322;7.864;2023-10-19T02:40:09;7.30;;;6.60;;
4831;SDS011;2430;51.322;7.864;2023-10-19T02:42:44;7.97;;;6.40;;
4831;SDS011;2430;51.322;7.864;2023-10-19T02:45:12;9.70;;;6.67;;
4831;SDS011;2430;51.322;7.864;2023-10-19T02:47:41;9.13;;;6.80;;
4831;SDS011;2430;51.322;7.864;2023-10-19T02:50:08;8.87;;;6.57;;
4831;SDS011;2430;51.322;7.864;2023-10-19T02:52:38;7.80;;;6.67;;
4831;SDS011;2430;51.322;7.864;2023-10-19T02:55:06;10.53;;;7.37;;
4831;SDS011;2430;51.322;7.864;2023-10-19T02:57:32;8.10;;;7.00;;
4831;SDS011;2430;51.322;7.864;2023-10-19T02:59:57;8.00;;;6.80;;
4831;SDS011;2430;51.322;7.864;2023-10-19T03:02:25;10.33;;;7.43;;
4831;SDS011;2430;51.322;7.864;2023-10-19T03:04:53;10.77;;;7.30;;
4831;SDS011;2430;51.322;7.864;2023-10-19T03:07:20;8.30;;;6.37;;
4831;SDS011;2430;51.322;7.864;2023-10-19T03:09:45;8.00;;;7.10;;
4831;SDS011;2430;51.322;7.864;2023-10-19T03:12:14;8.63;;;6.97;;
4831;SDS011;2430;51.322;7.864;2023-10-19T03:14:40;8.40;;;6.30;;
4831;SDS011;2430;51.322;7.864;2023-10-19T03:17:07;9.60;;;7.43;;
4831;SDS011;2430;51.322;7.864;2023-10-19T03:19:34;14.37;;;7.23;;
4831;SDS011;2430;51.322;7.864;2023-10-19T03:22:02;10.93;;;6.83;;
4831;SDS011;2430;51.322;7.864;2023-10-19T03:24:31;9.90;;;7.17;;
4831;SDS011;2430;51.322;7.864;2023-10-19T03:27:06;10.03;;;7.20;;
4831;SDS011;2430;51.322;7.864;2023-10-19T03:29:37;13.07;;;7.23;;
4831;SDS011;2430;51.322;7.864;2023-10-19T03:32:04;9.30;;;7.13;;
4831;SDS011;2430;51.322;7.864;2023-10-19T03:34:31;16.33;;;6.63;;
4831;SDS011;2430;51.322;7.864;2023-10-19T03:36:58;8.30;;;6.57;;
4831;SDS011;2430;51.322;7.864;2023-10-19T03:39:30;9.67;;;6.43;;
4831;SDS011;2430;51.322;7.864;2023-10-19T03:41:58;8.70;;;6.70;;
4831;SDS011;2430;51.322;7.864;2023-10-19T03:44:25;8.40;;;5.87;;
4831;SDS011;2430;51.322;7.864;2023-10-19T03:46:57;6.97;;;6.10;;
4831;SDS011;2430;51.322;7.864;2023-10-19T03:49:29;9.00;;;6.63;;
4831;SDS011;2430;51.322;7.864;2023-10-19T03:52:01;7.33;;;6.03;;
4831;SDS011;2430;51.322;7.864;2023-10-19T03:54:46;14.93;;;6.80;;
4831;SDS011;2430;51.322;7.864;2023-10-19T03:57:13;10.33;;;6.20;;
4831;SDS011;2430;51.322;7.864;2023-10-19T03:59:47;6.70;;;5.80;;
4831;SDS011;2430;51.322;7.864;2023-10-19T04:02:15;8.07;;;6.43;;
4831;SDS011;2430;51.322;7.864;2023-10-19T04:04:46;10.20;;;6.00;;
4831;SDS011;2430;51.322;7.864;2023-10-19T04:07:13;7.50;;;5.60;;
4831;SDS011;2430;51.322;7.864;2023-10-19T04:09:47;8.73;;;6.07;;
4831;SDS011;2430;51.322;7.864;2023-10-19T04:12:58;11.17;;;5.50;;
4831;SDS011;2430;51.322;7.864;2023-10-19T04:15:41;6.10;;;5.07;;
4831;SDS011;2430;51.322;7.864;2023-10-19T04:18:07;8.17;;;4.97;;
4831;SDS011;2430;51.322;7.864;2023-10-19T04:20:37;6.30;;;5.13;;
4831;SDS011;2430;51.322;7.864;2023-10-19T04:23:19;6.37;;;4.37;;
4831;SDS011;2430;51.322;7.864;2023-10-19T04:25:48;8.77;;;5.73;;
4831;SDS011;2430;51.322;7.864;2023-10-19T04:28:14;5.77;;;5.17;;
4831;SDS011;2430;51.322;7.864;2023-10-19T04:30:42;9.27;;;6.17;;
4831;SDS011;2430;51.322;7.864;2023-10-19T04:33:09;8.10;;;5.50;;
4831;SDS011;2430;51.322;7.864;2023-10-19T04:41:53;6.73;;;5.73;;
4831;SDS011;2430;51.322;7.864;2023-10-19T04:47:52;8.93;;;5.60;;
4831;SDS011;2430;51.322;7.864;2023-10-19T04:51:02;6.10;;;5.17;;
4831;SDS011;2430;51.322;7.864;2023-10-19T04:56:36;4.73;;;4.13;;
4831;SDS011;2430;51.322;7.864;2023-10-19T05:21:03;13.33;;;7.40;;
4831;SDS011;2430;51.322;7.864;2023-10-19T05:23:31;8.77;;;6.80;;
4831;SDS011;2430;51.322;7.864;2023-10-19T05:26:00;13.83;;;7.00;;
4831;SDS011;2430;51.322;7.864;2023-10-19T05:28:27;11.27;;;8.17;;
4831;SDS011;2430;51.322;7.864;2023-10-19T05:30:53;13.10;;;8.27;;
4831;SDS011;2430;51.322;7.864;2023-10-19T05:33:20;14.00;;;9.63;;
4831;SDS011;2430;51.322;7.864;2023-10-19T05:35:48;14.27;;;10.00;;
4831;SDS011;2430;51.322;7.864;2023-10-19T05:38:16;14.83;;;9.77;;
4831;SDS011;2430;51.322;7.864;2023-10-19T05:40:44;12.37;;;9.73;;
4831;SDS011;2430;51.322;7.864;2023-10-19T05:43:10;15.97;;;10.30;;
4831;SDS011;2430;51.322;7.864;2023-10-19T05:45:36;12.80;;;9.53;;
4831;SDS011;2430;51.322;7.864;2023-10-19T05:48:03;16.83;;;9.90;;
4831;SDS011;2430;51.322;7.864;2023-10-19T05:50:31;15.60;;;9.83;;
4831;SDS011;2430;51.322;7.864;2023-10-19T05:52:57;16.93;;;9.37;;
4831;SDS011;2430;51.322;7.864;2023-10-19T05:55:26;18.40;;;9.70;;
4831;SDS011;2430;51.322;7.864;2023-10-19T05:57:52;11.37;;;8.77;;
4831;SDS011;2430;51.322;7.864;2023-10-19T06:00:18;18.27;;;8.97;;
4831;SDS011;2430;51.322;7.864;2023-10-19T06:02:46;15.47;;;8.67;;
4831;SDS011;2430;51.322;7.864;2023-10-19T06:05:14;10.90;;;8.20;;
4831;SDS011;2430;51.322;7.864;2023-10-19T06:07:41;11.07;;;8.33;;
4831;SDS011;2430;51.322;7.864;2023-10-19T06:10:08;11.87;;;7.73;;
4831;SDS011;2430;51.322;7.864;2023-10-19T06:12:36;10.90;;;7.27;;
4831;SDS011;2430;51.322;7.864;2023-10-19T06:15:02;8.73;;;6.97;;
4831;SDS011;2430;51.322;7.864;2023-10-19T06:17:29;11.67;;;8.60;;
4831;SDS011;2430;51.322;7.864;2023-10-19T06:19:55;18.33;;;10.10;;
4831;SDS011;2430;51.322;7.864;2023-10-19T06:22:21;10.10;;;7.77;;
4831;SDS011;2430;51.322;7.864;2023-10-19T06:24:47;9.03;;;7.90;;
4831;SDS011;2430;51.322;7.864;2023-10-19T06:27:14;13.73;;;7.80;;
4831;SDS011;2430;51.322;7.864;2023-10-19T06:29:41;13.83;;;8.00;;
4831;SDS011;2430;51.322;7.864;2023-10-19T06:32:09;14.30;;;8.67;;
4831;SDS011;2430;51.322;7.864;2023-10-19T06:34:38;10.83;;;8.63;;
4831;SDS011;2430;51.322;7.864;2023-10-19T06:37:04;16.03;;;8.70;;
4831;SDS011;2430;51.322;7.864;2023-10-19T06:39:32;17.17;;;9.40;;
4831;SDS011;2430;51.322;7.864;2023-10-19T06:41:58;11.40;;;7.97;;
4831;SDS011;2430;51.322;7.864;2023-10-19T06:44:25;11.17;;;7.70;;
4831;SDS011;2430;51.322;7.864;2023-10-19T06:46:53;12.83;;;8.30;;
4831;SDS011;2430;51.322;7.864;2023-10-19T06:49:19;12.77;;;8.23;;
4831;SDS011;2430;51.322;7.864;2023-10-19T06:51:45;10.03;;;6.83;;
4831;SDS011;2430;51.322;7.864;2023-10-19T06:54:11;9.23;;;6.47;;
4831;SDS011;2430;51.322;7.864;2023-10-19T06:56:38;10.77;;;7.73;;
4831;SDS011;2430;51.322;7.864;2023-10-19T06:59:04;10.70;;;7.40;;
4831;SDS011;2430;51.322;7.864;2023-10-19T07:01:30;11.43;;;7.77;;
4831;SDS011;2430;51.322;7.864;2023-10-19T07:03:58;9.37;;;6.83;;
4831;SDS011;2430;51.322;7.864;2023-10-19T07:06:25;7.20;;;6.23;;
4831;SDS011;2430;51.322;7.864;2023-10-19T07:08:51;10.70;;;6.67;;
4831;SDS011;2430;51.322;7.864;2023-10-19T07:11:17;9.30;;;6.80;;
4831;SDS011;2430;51.322;7.864;2023-10-19T07:13:44;9.20;;;5.93;;
4831;SDS011;2430;51.322;7.864;2023-10-19T07:16:11;7.90;;;6.03;;
4831;SDS011;2430;51.322;7.864;2023-10-19T07:18:37;7.13;;;6.40;;
4831;SDS011;2430;51.322;7.864;2023-10-19T07:21:05;8.50;;;5.93;;
4831;SDS011;2430;51.322;7.864;2023-10-19T07:23:34;8.00;;;6.00;;
4831;SDS011;2430;51.322;7.864;2023-10-19T07:26:03;9.23;;;6.63;;
4831;SDS011;2430;51.322;7.864;2023-10-19T07:28:30;8.93;;;6.77;;
4831;SDS011;2430;51.322;7.864;2023-10-19T07:30:57;7.10;;;5.93;;
4831;SDS011;2430;51.322;7.864;2023-10-19T07:33:24;6.20;;;5.60;;
4831;SDS011;2430;51.322;7.864;2023-10-19T07:35:52;7.23;;;6.47;;
4831;SDS011;2430;51.322;7.864;2023-10-19T07:38:21;8.03;;;5.70;;
4831;SDS011;2430;51.322;7.864;2023-10-19T07:40:47;15.60;;;7.10;;
4831;SDS011;2430;51.322;7.864;2023-10-19T07:43:14;11.40;;;6.30;;
4831;SDS011;2430;51.322;7.864;2023-10-19T07:45:40;8.97;;;6.27;;
4831;SDS011;2430;51.322;7.864;2023-10-19T07:48:07;10.63;;;6.83;;
4831;SDS011;2430;51.322;7.864;2023-10-19T07:50:36;11.93;;;6.63;;
4831;SDS011;2430;51.322;7.864;2023-10-19T07:53:03;8.87;;;6.60;;
4831;SDS011;2430;51.322;7.864;2023-10-19T07:55:31;8.17;;;6.20;;
4831;SDS011;2430;51.322;7.864;2023-10-19T07:57:57;13.23;;;6.60;;
4831;SDS011;2430;51.322;7.864;2023-10-19T08:00:26;12.40;;;6.93;;
4831;SDS011;2430;51.322;7.864;2023-10-19T08:02:54;12.53;;;6.07;;
4831;SDS011;2430;51.322;7.864;2023-10-19T08:05:20;22.60;;;6.90;;
4831;SDS011;2430;51.322;7.864;2023-10-19T08:07:46;23.43;;;6.23;;
4831;SDS011;2430;51.322;7.864;2023-10-19T08:10:14;12.30;;;6.57;;
4831;SDS011;2430;51.322;7.864;2023-10-19T08:12:42;6.90;;;5.13;;
4831;SDS011;2430;51.322;7.864;2023-10-19T08:15:09;7.80;;;5.13;;
4831;SDS011;2430;51.322;7.864;2023-10-19T08:17:36;8.03;;;5.90;;
4831;SDS011;2430;51.322;7.864;2023-10-19T08:20:03;8.53;;;5.03;;
4831;SDS011;2430;51.322;7.864;2023-10-19T08:22:33;6.00;;;5.00;;
4831;SDS011;2430;51.322;7.864;2023-10-19T08:25:01;5.73;;;4.70;;
4831;SDS011;2430;51.322;7.864;2023-10-19T08:27:29;5.50;;;4.57;;
4831;SDS011;2430;51.322;7.864;2023-10-19T08:29:57;9.53;;;6.67;;
4831;SDS011;2430;51.322;7.864;2023-10-19T08:32:24;8.90;;;5.23;;
4831;SDS011;2430;51.322;7.864;2023-10-19T08:34:50;7.13;;;5.30;;
4831;SDS011;2430;51.322;7.864;2023-10-19T08:37:17;13.97;;;8.07;;
4831;SDS011;2430;51.322;7.864;2023-10-19T08:39:44;14.70;;;8.33;;
4831;SDS011;2430;51.322;7.864;2023-10-19T08:42:10;13.73;;;9.97;;
4831;SDS011;2430;51.322;7.864;2023-10-19T08:44:36;14.17;;;9.07;;
4831;SDS011;2430;51.322;7.864;2023-10-19T08:47:05;9.63;;;8.07;;
4831;SDS011;2430;51.322;7.864;2023-10-19T08:49:31;9.50;;;5.90;;
4831;SDS011;2430;51.322;7.864;2023-10-19T08:51:57;14.13;;;6.87;;
4831;SDS011;2430;51.322;7.864;2023-10-19T08:54:24;7.10;;;5.90;;
4831;SDS011;2430;51.322;7.864;2023-10-19T08:56:52;10.60;;;5.40;;
4831;SDS011;2430;51.322;7.864;2023-10-19T08:59:20;6.40;;;4.60;;
4831;SDS011;2430;51.322;7.864;2023-10-19T09:01:46;10.37;;;6.43;;
4831;SDS011;2430;51.322;7.864;2023-10-19T09:04:15;17.83;;;9.80;;
4831;SDS011;2430;51.322;7.864;2023-10-19T09:06:42;13.03;;;9.17;;
4831;SDS011;2430;51.322;7.864;2023-10-19T09:09:09;7.70;;;6.23;;
4831;SDS011;2430;51.322;7.864;2023-10-19T09:11:41;8.00;;;6.10;;
4831;SDS011;2430;51.322;7.864;2023-10-19T09:14:08;12.20;;;6.40;;
4831;SDS011;2430;51.322;7.864;2023-10-19T09:16:37;8.27;;;6.60;;
4831;SDS011;2430;51.322;7.864;2023-10-19T09:19:04;7.87;;;6.70;;
4831;SDS011;2430;51.322;7.864;2023-10-19T09:21:32;8.03;;;5.90;;
4831;SDS011;2430;51.322;7.864;2023-10-19T09:23:58;8.10;;;5.33;;
4831;SDS011;2430;51.322;7.864;2023-10-19T09:26:24;8.47;;;5.90;;
4831;SDS011;2430;51.322;7.864;2023-10-19T09:28:52;13.40;;;6.23;;
4831;SDS011;2430;51.322;7.864;2023-10-19T09:31:19;11.80;;;5.77;;
4831;SDS011;2430;51.322;7.864;2023-10-19T09:33:47;11.57;;;6.10;;
4831;SDS011;2430;51.322;7.864;2023-10-19T09:36:14;6.87;;;5.07;;
4831;SDS011;2430;51.322;7.864;2023-10-19T09:38:45;5.40;;;3.47;;
4831;SDS011;2430;51.322;7.864;2023-10-19T09:41:14;7.73;;;4.17;;
4831;SDS011;2430;51.322;7.864;2023-10-19T09:43:41;6.17;;;4.30;;
4831;SDS011;2430;51.322;7.864;2023-10-19T09:46:09;13.30;;;4.50;;
4831;SDS011;2430;51.322;7.864;2023-10-19T09:48:38;12.20;;;5.83;;
4831;SDS011;2430;51.322;7.864;2023-10-19T09:51:06;9.23;;;5.30;;
4831;SDS011;2430;51.322;7.864;2023-10-19T09:53:33;5.57;;;4.00;;
4831;SDS011;2430;51.322;7.864;2023-10-19T09:56:02;6.27;;;3.87;;
4831;SDS011;2430;51.322;7.864;2023-10-19T09:58:31;4.43;;;2.90;;
4831;SDS011;2430;51.322;7.864;2023-10-19T10:01:00;6.57;;;2.73;;
4831;SDS011;2430;51.322;7.864;2023-10-19T10:03:44;6.70;;;2.13;;
4831;SDS011;2430;51.322;7.864;2023-10-19T10:06:10;6.23;;;2.40;;
4831;SDS011;2430;51.322;7.864;2023-10-19T10:08:39;5.03;;;1.73;;
4831;SDS011;2430;51.322;7.864;2023-10-19T10:11:18;7.03;;;1.80;;
4831;SDS011;2430;51.322;7.864;2023-10-19T10:13:45;7.63;;;2.07;;
4831;SDS011;2430;51.322;7.864;2023-10-19T10:16:16;5.27;;;1.63;;
4831;SDS011;2430;51.322;7.864;2023-10-19T10:18:43;10.53;;;2.10;;
4831;SDS011;2430;51.322;7.864;2023-10-19T10:21:10;3.30;;;2.30;;
4831;SDS011;2430;51.322;7.864;2023-10-19T10:23:40;8.03;;;2.73;;
4831;SDS011;2430;51.322;7.864;2023-10-19T10:26:07;5.60;;;2.20;;
4831;SDS011;2430;51.322;7.864;2023-10-19T10:28:35;8.60;;;3.10;;
4831;SDS011;2430;51.322;7.864;2023-10-19T10:31:08;8.80;;;2.23;;
4831;SDS011;2430;51.322;7.864;2023-10-19T10:33:38;3.80;;;2.07;;
4831;SDS011;2430;51.322;7.864;2023-10-19T10:36:04;11.90;;;2.13;;
4831;SDS011;2430;51.322;7.864;2023-10-19T10:38:32;9.57;;;2.33;;
4831;SDS011;2430;51.322;7.864;2023-10-19T10:40:59;3.67;;;1.50;;
4831;SDS011;2430;51.322;7.864;2023-10-19T10:43:25;9.30;;;2.23;;
4831;SDS011;2430;51.322;7.864;2023-10-19T10:45:54;11.67;;;2.00;;
4831;SDS011;2430;51.322;7.864;2023-10-19T10:48:28;7.17;;;2.00;;
4831;SDS011;2430;51.322;7.864;2023-10-19T10:50:54;5.47;;;1.40;;
4831;SDS011;2430;51.322;7.864;2023-10-19T10:53:22;3.87;;;1.40;;
4831;SDS011;2430;51.322;7.864;2023-10-19T10:55:49;7.10;;;2.07;;
4831;SDS011;2430;51.322;7.864;2023-10-19T10:58:16;7.03;;;2.10;;
4831;SDS011;2430;51.322;7.864;2023-10-19T11:00:43;7.13;;;2.07;;
4831;SDS011;2430;51.322;7.864;2023-10-19T11:03:10;6.33;;;2.60;;
4831;SDS011;2430;51.322;7.864;2023-10-19T11:05:37;5.13;;;1.97;;
4831;SDS011;2430;51.322;7.864;2023-10-19T11:08:07;4.57;;;2.10;;
4831;SDS011;2430;51.322;7.864;2023-10-19T11:10:36;9.03;;;2.20;;
4831;SDS011;2430;51.322;7.864;2023-10-19T11:13:03;8.17;;;2.10;;
4831;SDS011;2430;51.322;7.864;2023-10-19T11:15:29;8.00;;;1.80;;
4831;SDS011;2430;51.322;7.864;2023-10-19T11:17:56;4.27;;;1.80;;
4831;SDS011;2430;51.322;7.864;2023-10-19T11:20:24;11.23;;;2.07;;
4831;SDS011;2430;51.322;7.864;2023-10-19T11:22:53;8.63;;;1.97;;
4831;SDS011;2430;51.322;7.864;2023-10-19T11:25:21;8.70;;;1.87;;
4831;SDS011;2430;51.322;7.864;2023-10-19T11:27:47;4.20;;;1.77;;
4831;SDS011;2430;51.322;7.864;2023-10-19T11:30:15;3.93;;;1.30;;
4831;SDS011;2430;51.322;7.864;2023-10-19T11:32:49;5.90;;;1.70;;
4831;SDS011;2430;51.322;7.864;2023-10-19T11:35:17;5.37;;;1.93;;
4831;SDS011;2430;51.322;7.864;2023-10-19T11:37:46;7.80;;;2.00;;
4831;SDS011;2430;51.322;7.864;2023-10-19T11:40:12;5.60;;;1.97;;
4831;SDS011;2430;51.322;7.864;2023-10-19T11:42:39;4.63;;;1.77;;
4831;SDS011;2430;51.322;7.864;2023-10-19T11:45:05;4.13;;;1.57;;
4831;SDS011;2430;51.322;7.864;2023-10-19T11:47:32;3.90;;;1.53;;
4831;SDS011;2430;51.322;7.864;2023-10-19T11:50:00;6.87;;;1.73;;
4831;SDS011;2430;51.322;7.864;2023-10-19T11:52:26;6.57;;;1.77;;
4831;SDS011;2430;51.322;7.864;2023-10-19T11:54:54;5.13;;;1.83;;
4831;SDS011;2430;51.322;7.864;2023-10-19T11:57:20;3.43;;;1.50;;
4831;SDS011;2430;51.322;7.864;2023-10-19T11:59:46;7.07;;;1.93;;
4831;SDS011;2430;51.322;7.864;2023-10-19T12:02:17;7.23;;;2.73;;
4831;SDS011;2430;51.322;7.864;2023-10-19T12:04:43;6.40;;;2.23;;
4831;SDS011;2430;51.322;7.864;2023-10-19T12:07:10;7.63;;;2.30;;
4831;SDS011;2430;51.322;7.864;2023-10-19T12:09:36;6.23;;;2.20;;
4831;SDS011;2430;51.322;7.864;2023-10-19T12:12:06;4.43;;;2.00;;
4831;SDS011;2430;51.322;7.864;2023-10-19T12:14:34;7.20;;;2.50;;
4831;SDS011;2430;51.322;7.864;2023-10-19T12:17:02;8.50;;;2.60;;
4831;SDS011;2430;51.322;7.864;2023-10-19T12:19:32;5.50;;;2.10;;
4831;SDS011;2430;51.322;7.864;2023-10-19T12:21:59;10.30;;;2.17;;
4831;SDS011;2430;51.322;7.864;2023-10-19T12:24:25;4.87;;;1.90;;
4831;SDS011;2430;51.322;7.864;2023-10-19T12:26:54;7.10;;;1.80;;
4831;SDS011;2430;51.322;7.864;2023-10-19T12:29:23;8.23;;;1.73;;
4831;SDS011;2430;51.322;7.864;2023-10-19T12:31:50;5.90;;;2.17;;
4831;SDS011;2430;51.322;7.864;2023-10-19T12:34:16;10.73;;;2.27;;
4831;SDS011;2430;51.322;7.864;2023-10-19T12:36:43;14.03;;;2.40;;
4831;SDS011;2430;51.322;7.864;2023-10-19T12:39:11;5.30;;;2.53;;
4831;SDS011;2430;51.322;7.864;2023-10-19T12:41:59;3.17;;;1.70;;
4831;SDS011;2430;51.322;7.864;2023-10-19T12:44:27;7.13;;;2.23;;
4831;SDS011;2430;51.322;7.864;2023-10-19T12:46:55;6.83;;;2.00;;
4831;SDS011;2430;51.322;7.864;2023-10-19T12:49:22;6.20;;;2.00;;
4831;SDS011;2430;51.322;7.864;2023-10-19T12:51:51;5.20;;;1.80;;
4831;SDS011;2430;51.322;7.864;2023-10-19T12:54:17;4.10;;;1.80;;
4831;SDS011;2430;51.322;7.864;2023-10-19T12:56:43;4.00;;;2.00;;
4831;SDS011;2430;51.322;7.864;2023-10-19T12:59:10;6.27;;;1.70;;
4831;SDS011;2430;51.322;7.864;2023-10-19T13:01:37;8.13;;;2.30;;
4831;SDS011;2430;51.322;7.864;2023-10-19T13:04:05;7.17;;;2.13;;
4831;SDS011;2430;51.322;7.864;2023-10-19T13:06:43;10.73;;;2.20;;
4831;SDS011;2430;51.322;7.864;2023-10-19T13:09:10;7.13;;;2.10;;
4831;SDS011;2430;51.322;7.864;2023-10-19T13:11:36;3.77;;;1.60;;
4831;SDS011;2430;51.322;7.864;2023-10-19T13:14:03;4.93;;;2.03;;
4831;SDS011;2430;51.322;7.864;2023-10-19T13:16:31;8.10;;;2.13;;
4831;SDS011;2430;51.322;7.864;2023-10-19T13:18:59;4.87;;;2.10;;
4831;SDS011;2430;51.322;7.864;2023-10-19T13:21:33;5.40;;;1.60;;
4831;SDS011;2430;51.322;7.864;2023-10-19T13:24:00;5.27;;;2.03;;
4831;SDS011;2430;51.322;7.864;2023-10-19T13:26:27;2.77;;;1.70;;
4831;SDS011;2430;51.322;7.864;2023-10-19T13:28:53;6.90;;;2.30;;
4831;SDS011;2430;51.322;7.864;2023-10-19T13:31:20;8.17;;;2.53;;
4831;SDS011;2430;51.322;7.864;2023-10-19T13:33:47;8.20;;;1.93;;
4831;SDS011;2430;51.322;7.864;2023-10-19T13:36:15;13.67;;;2.13;;
4831;SDS011;2430;51.322;7.864;2023-10-19T13:38:41;12.07;;;1.83;;
4831;SDS011;2430;51.322;7.864;2023-10-19T13:41:08;3.90;;;1.97;;
4831;SDS011;2430;51.322;7.864;2023-10-19T13:43:36;7.97;;;1.67;;
4831;SDS011;2430;51.322;7.864;2023-10-19T13:46:02;8.40;;;1.93;;
4831;SDS011;2430;51.322;7.864;2023-10-19T13:48:29;4.10;;;1.80;;
4831;SDS011;2430;51.322;7.864;2023-10-19T13:50:56;10.83;;;2.20;;
4831;SDS011;2430;51.322;7.864;2023-10-19T13:53:26;6.57;;;1.80;;
4831;SDS011;2430;51.322;7.864;2023-10-19T13:55:53;5.77;;;1.70;;
4831;SDS011;2430;51.322;7.864;2023-10-19T13:58:19;8.93;;;1.90;;
4831;SDS011;2430;51.322;7.864;2023-10-19T14:00:46;9.43;;;1.47;;
4831;SDS011;2430;51.322;7.864;2023-10-19T14:03:14;5.50;;;1.80;;
4831;SDS011;2430;51.322;7.864;2023-10-19T14:05:41;4.87;;;1.90;;
4831;SDS011;2430;51.322;7.864;2023-10-19T14:08:08;4.80;;;1.70;;
4831;SDS011;2430;51.322;7.864;2023-10-19T14:10:37;13.63;;;2.80;;
4831;SDS011;2430;51.322;7.864;2023-10-19T14:13:06;7.50;;;2.07;;
4831;SDS011;2430;51.322;7.864;2023-10-19T14:15:32;5.00;;;2.20;;
4831;SDS011;2430;51.322;7.864;2023-10-19T14:17:59;6.23;;;2.03;;
4831;SDS011;2430;51.322;7.864;2023-10-19T14:20:25;4.30;;;1.77;;
4831;SDS011;2430;51.322;7.864;2023-10-19T14:22:54;6.57;;;1.93;;
4831;SDS011;2430;51.322;7.864;2023-10-19T14:25:20;9.00;;;2.80;;
4831;SDS011;2430;51.322;7.864;2023-10-19T14:27:49;6.30;;;2.33;;
4831;SDS011;2430;51.322;7.864;2023-10-19T14:30:17;5.33;;;2.13;;
4831;SDS011;2430;51.322;7.864;2023-10-19T14:32:44;10.47;;;2.80;;
4831;SDS011;2430;51.322;7.864;2023-10-19T14:35:12;5.73;;;2.83;;
4831;SDS011;2430;51.322;7.864;2023-10-19T14:37:41;6.70;;;2.40;;
4831;SDS011;2430;51.322;7.864;2023-10-19T14:40:08;8.13;;;2.10;;
4831;SDS011;2430;51.322;7.864;2023-10-19T14:42:35;10.97;;;3.07;;
4831;SDS011;2430;51.322;7.864;2023-10-19T14:45:03;7.63;;;2.60;;
4831;SDS011;2430;51.322;7.864;2023-10-19T14:47:30;8.00;;;2.77;;
4831;SDS011;2430;51.322;7.864;2023-10-19T14:49:56;5.00;;;2.03;;
4831;SDS011;2430;51.322;7.864;2023-10-19T14:52:22;8.40;;;3.00;;
4831;SDS011;2430;51.322;7.864;2023-10-19T14:54:51;7.20;;;2.00;;
4831;SDS011;2430;51.322;7.864;2023-10-19T14:57:17;10.17;;;2.90;;
4831;SDS011;2430;51.322;7.864;2023-10-19T14:59:43;7.10;;;2.73;;
4831;SDS011;2430;51.322;7.864;2023-10-19T15:02:12;9.17;;;2.37;;
4831;SDS011;2430;51.322;7.864;2023-10-19T15:04:39;4.23;;;2.40;;
4831;SDS011;2430;51.322;7.864;2023-10-19T15:07:05;11.67;;;2.60;;
4831;SDS011;2430;51.322;7.864;2023-10-19T15:09:32;12.03;;;2.60;;
4831;SDS011;2430;51.322;7.864;2023-10-19T15:11:58;6.10;;;2.43;;
4831;SDS011;2430;51.322;7.864;2023-10-19T15:14:25;9.90;;;2.93;;
4831;SDS011;2430;51.322;7.864;2023-10-19T15:16:52;8.90;;;3.57;;
4831;SDS011;2430;51.322;7.864;2023-10-19T15:19:19;6.27;;;2.57;;
4831;SDS011;2430;51.322;7.864;2023-10-19T15:21:45;7.80;;;2.90;;
4831;SDS011;2430;51.322;7.864;2023-10-19T15:24:12;6.20;;;2.60;;
4831;SDS011;2430;51.322;7.864;2023-10-19T15:26:38;5.50;;;2.50;;
4831;SDS011;2430;51.322;7.864;2023-10-19T15:29:04;7.67;;;3.03;;
4831;SDS011;2430;51.322;7.864;2023-10-19T15:31:31;10.73;;;2.90;;
4831;SDS011;2430;51.322;7.864;2023-10-19T15:33:57;10.87;;;3.30;;
4831;SDS011;2430;51.322;7.864;2023-10-19T15:36:25;14.80;;;3.77;;
4831;SDS011;2430;51.322;7.864;2023-10-19T15:38:51;8.30;;;3.13;;
4831;SDS011;2430;51.322;7.864;2023-10-19T15:41:18;6.53;;;2.97;;
4831;SDS011;2430;51.322;7.864;2023-10-19T15:43:44;9.57;;;3.13;;
4831;SDS011;2430;51.322;7.864;2023-10-19T15:46:10;11.17;;;3.00;;
4831;SDS011;2430;51.322;7.864;2023-10-19T15:48:38;6.90;;;2.80;;
4831;SDS011;2430;51.322;7.864;2023-10-19T15:51:04;9.90;;;2.70;;
4831;SDS011;2430;51.322;7.864;2023-10-19T15:53:33;8.73;;;2.50;;